Killen, Alabama
Current Conditions -  °F | °C
As of 3:53 PM on Thursday 27 Nov 2014 (Local Time) from KMSL Reporting Station
Overcast Overcast  
Wind Chill: 37°   Ceiling: 3600
Heat Index: 42°   Visibility: 10mi
Dew Point: 27°   Wind: 9mph
Humidity: 55%   Direction: 340°NNW
Pressure: 30.45"   Gusts: NA
Location:  34.86°N, 87.54°W
Report Text: KMSL 272153Z AUTO 34008KT 10SM OVC036 06/M03 A3045 RMK AO2 SLP313 T00561028
Loading
Personal Weather Stations






























Interactive Weather Map New forecast layout! Learn more

10-Day Weather Forecast

Advertisements
Track Severe Weather on mobile